Edzard Schulte — 2CVX9 — position and weather

sailwx.info

Track history (hours):
 
Tides and Currents Weather Stations Pressure Air Temp Water Temp Dewpoint Dewpoint Depression Visibility Wind Speed Wind Dir Waves Ship Positions

Edzard Schulte

Last reported at 2016-May-28 17:11 UTC. Time now 2016-May-29 11:39 UTC.
Position N 49°20' W 008°34'.

Length 145 m; draft 8.3 m.

Type: Tanker. MMSI: 235076245.

Date/timePositionNaut miles runAvg speedWind from/ knotsBaromVisibWave heightAir tempDewpointWater temp
2016-May-28 17:11N 49°20' W 008°34'913.6
2016-May-28 16:30N 49°21' W 008°20'1413.8
2016-May-28 15:27N 49°23' W 007°58'1314.1
2016-May-28 14:33N 49°24' W 007°39'1414.1
2016-May-28 13:33N 49°25' W 007°17'1413.9
2016-May-28 12:33N 49°27' W 006°55'1413.8
2016-May-28 11:33N 49°28' W 006°35'1313.5
2016-May-28 10:33N 49°29' W 006°14'1613.2
2016-May-28 09:23N 49°31' W 005°50'1213.0
2016-May-28 08:26N 49°33' W 005°31'1112.9
2016-May-28 07:34N 49°35' W 005°14'2713.3
2016-May-28 05:34N 49°41' W 004°34'1413.9
2016-May-28 04:33N 49°46' W 004°14'1714.3
2016-May-28 03:21N 49°50' W 003°48'1114.1
2016-May-28 02:33N 49°53' W 003°31'1713.7
2016-May-28 01:21N 49°57' W 003°07'9012.9
2016-May-27 18:21N 50°22' W 000°51'1315.5
2016-May-27 17:33N 50°25' W 000°32'1515.0
2016-May-27 16:34N 50°29' W 000°10'1414.4
2016-May-27 15:34N 50°33' E 000°12'4413.1
2016-May-27 12:14N 50°55' E 001°11'1015.0
2016-May-27 11:33N 51°02' E 001°23'1716.5
2016-May-27 10:33N 51°12' E 001°44'1615.6
2016-May-27 09:33N 51°25' E 001°59'1312.5
2016-May-27 08:33N 51°21' E 002°18'1413.5
2016-May-27 07:30N 51°23' E 002°40'1010.7
2016-May-27 06:33N 51°23' E 002°57'1110.7
2016-May-27 05:33N 51°25' E 003°14'1110.8
2016-May-27 04:33N 51°25' E 003°31'7 7.1
2016-May-27 03:34N 51°25' E 003°42'7 6.8
2016-May-27 02:32N 51°20' E 003°49'1 0.7
2016-May-27 01:34N 51°19' E 003°50'3 2.5
2016-May-27 00:34N 51°17' E 003°50'6 6.2
2016-May-26 23:33N 51°11' E 003°48'2 1.8
2016-May-26 22:28N 51°09' E 003°47'0 0.0
2016-May-26 21:31N 51°09' E 003°47'0 0.0
2016-May-26 20:28N 51°09' E 003°47'0 0.0
2016-May-26 19:28N 51°09' E 003°47'0 0.0
2016-May-26 18:31N 51°09' E 003°47'0 0.0
2016-May-26 17:26N 51°09' E 003°47'0 0.0
2016-May-26 16:22N 51°09' E 003°47'0 0.0
2016-May-26 15:31N 51°09' E 003°47'0 0.0
2016-May-26 14:31N 51°09' E 003°47'0 0.0
2016-May-26 13:31N 51°09' E 003°47'0 0.0
2016-May-26 12:31N 51°09' E 003°47'0 0.0
2016-May-26 11:31N 51°09' E 003°47'0 0.0
2016-May-26 10:31N 51°09' E 003°47'0 0.0
2016-May-26 09:25N 51°09' E 003°47'0 0.0
2016-May-26 08:28N 51°09' E 003°47'0 0.0
2016-May-26 07:28N 51°09' E 003°47'0 0.0
2016-May-26 06:31N 51°09' E 003°47'0 0.0
2016-May-26 05:28N 51°09' E 003°47'0 0.0
2016-May-26 04:28N 51°09' E 003°47'0 0.0
2016-May-26 03:28N 51°09' E 003°47'0 0.0
2016-May-26 02:31N 51°09' E 003°47'0 0.0
2016-May-26 01:31N 51°09' E 003°47'0 0.0
2016-May-26 00:28N 51°09' E 003°47'0 0.0
2016-May-25 23:31N 51°09' E 003°47'0 0.0
2016-May-25 22:30N 51°09' E 003°47'0 0.0
2016-May-25 21:28N 51°09' E 003°47'0 0.0
2016-May-25 20:31N 51°09' E 003°47'0 0.0
2016-May-25 19:28N 51°09' E 003°47'0 0.0
2016-May-25 18:28N 51°09' E 003°47'0 0.0
2016-May-25 17:31N 51°09' E 003°47'0 0.0
2016-May-25 16:28N 51°09' E 003°47'0 0.0
2016-May-25 15:25N 51°09' E 003°47'0 0.0
2016-May-25 14:28N 51°09' E 003°47'0 0.0
2016-May-25 13:28N 51°09' E 003°47'0 0.0
2016-May-25 12:29N 51°09' E 003°47'0 0.0
2016-May-25 11:31N 51°09' E 003°47'0 0.0
2016-May-25 10:28N 51°09' E 003°47'0 0.0
2016-May-25 09:31N 51°09' E 003°47'0 0.0
2016-May-25 08:28N 51°09' E 003°47'0 0.0
2016-May-25 07:28N 51°09' E 003°47'0 0.0
2016-May-25 06:31N 51°09' E 003°47'0 0.0
2016-May-25 05:31N 51°09' E 003°47'0 0.0
2016-May-25 04:19N 51°09' E 003°47'0 0.0
2016-May-25 03:31N 51°09' E 003°47'0 0.0
2016-May-25 02:28N 51°09' E 003°47'0 0.0
2016-May-25 01:28N 51°09' E 003°47'0 0.0
2016-May-25 00:28N 51°09' E 003°47'0 0.0
2016-May-24 23:28N 51°09' E 003°47'0 0.0
2016-May-24 22:28N 51°09' E 003°47'0 0.0
2016-May-24 21:28N 51°09' E 003°47'0 0.0
2016-May-24 20:28N 51°09' E 003°47'0 0.0
2016-May-24 19:31N 51°09' E 003°47'0 0.0
2016-May-24 18:25N 51°09' E 003°47'0 0.0
2016-May-24 17:28N 51°09' E 003°47'0 0.0
2016-May-24 16:31N 51°09' E 003°47'0 0.0
2016-May-24 15:28N 51°09' E 003°47'0 0.0
2016-May-24 14:31N 51°09' E 003°47'0 0.0
2016-May-24 13:33N 51°09' E 003°47'0 0.0
2016-May-24 12:31N 51°09' E 003°47'0 0.0
2016-May-24 11:31N 51°09' E 003°47'0 0.0
2016-May-24 10:28N 51°09' E 003°47'0 0.0
2016-May-24 09:31N 51°09' E 003°47'0 0.0
2016-May-24 08:22N 51°09' E 003°47'1 1.2
2016-May-24 07:34N 51°10' E 003°47'7 7.1
2016-May-24 06:33N 51°17' E 003°50'3 3.3
2016-May-24 05:33N 51°20' E 003°49'5 5.0
2016-May-24 04:33N 51°23' E 003°43'7 6.8
2016-May-24 03:34N 51°27' E 003°34'7 7.4
2016-May-24 02:33N 51°32' E 003°25'1010.1
2016-May-24 01:32N 51°41' E 003°17'8 0.3
2016-May-22 22:21N 51°48' E 003°22'0 0.0
2016-May-22 05:12N 51°48' E 003°22'18 0.6
2016-May-21 00:22N 52°06' E 003°22'17 5.9
2016-May-20 21:34N 52°18' E 003°04'113 4.5
2016-May-19 20:15N 54°01' E 004°21'6 8.5
2016-May-19 19:33N 54°03' E 004°31'6 4.8
2016-May-19 18:22N 53°59' E 004°38'117 7.6
2016-May-19 03:07N 52°10' E 003°30'710.0
2016-May-19 02:22N 52°06' E 003°40'7 8.4
2016-May-19 01:34N 52°04' E 003°51'8 7.9
2016-May-19 00:34N 51°60' E 004°02'9 8.8
2016-May-18 23:34N 51°55' E 004°14'4 0.6
2016-May-18 17:19N 51°53' E 004°18'  
Track history (hours):
 
Tides and Currents Weather Stations Pressure Air Temp Water Temp Dewpoint Dewpoint Depression Visibility Wind Speed Wind Dir Waves Ship Positions

Edzard Schulte

Last reported at 2016-May-28 17:11 UTC. Time now 2016-May-29 11:39 UTC.
Position N 49°20' W 008°34'.

Length 145 m; draft 8.3 m.

Type: Tanker. MMSI: 235076245.

Date/timePositionNaut miles runAvg speedWind from/ knotsBaromVisibWave heightAir tempDewpointWater temp
2016-May-28 17:11N 49°20' W 008°34'913.6
2016-May-28 16:30N 49°21' W 008°20'1413.8
2016-May-28 15:27N 49°23' W 007°58'1314.1
2016-May-28 14:33N 49°24' W 007°39'1414.1
2016-May-28 13:33N 49°25' W 007°17'1413.9
2016-May-28 12:33N 49°27' W 006°55'1413.8
2016-May-28 11:33N 49°28' W 006°35'1313.5
2016-May-28 10:33N 49°29' W 006°14'1613.2
2016-May-28 09:23N 49°31' W 005°50'1213.0
2016-May-28 08:26N 49°33' W 005°31'1112.9
2016-May-28 07:34N 49°35' W 005°14'2713.3
2016-May-28 05:34N 49°41' W 004°34'1413.9
2016-May-28 04:33N 49°46' W 004°14'1714.3
2016-May-28 03:21N 49°50' W 003°48'1114.1
2016-May-28 02:33N 49°53' W 003°31'1713.7
2016-May-28 01:21N 49°57' W 003°07'9012.9
2016-May-27 18:21N 50°22' W 000°51'1315.5
2016-May-27 17:33N 50°25' W 000°32'1515.0
2016-May-27 16:34N 50°29' W 000°10'1414.4
2016-May-27 15:34N 50°33' E 000°12'4413.1
2016-May-27 12:14N 50°55' E 001°11'1015.0
2016-May-27 11:33N 51°02' E 001°23'1716.5
2016-May-27 10:33N 51°12' E 001°44'1615.6
2016-May-27 09:33N 51°25' E 001°59'1312.5
2016-May-27 08:33N 51°21' E 002°18'1413.5
2016-May-27 07:30N 51°23' E 002°40'1010.7
2016-May-27 06:33N 51°23' E 002°57'1110.7
2016-May-27 05:33N 51°25' E 003°14'1110.8
2016-May-27 04:33N 51°25' E 003°31'7 7.1
2016-May-27 03:34N 51°25' E 003°42'7 6.8
2016-May-27 02:32N 51°20' E 003°49'1 0.7
2016-May-27 01:34N 51°19' E 003°50'3 2.5
2016-May-27 00:34N 51°17' E 003°50'6 6.2
2016-May-26 23:33N 51°11' E 003°48'2 1.8
2016-May-26 22:28N 51°09' E 003°47'0 0.0
2016-May-26 21:31N 51°09' E 003°47'0 0.0
2016-May-26 20:28N 51°09' E 003°47'0 0.0
2016-May-26 19:28N 51°09' E 003°47'0 0.0
2016-May-26 18:31N 51°09' E 003°47'0 0.0
2016-May-26 17:26N 51°09' E 003°47'0 0.0
2016-May-26 16:22N 51°09' E 003°47'0 0.0
2016-May-26 15:31N 51°09' E 003°47'0 0.0
2016-May-26 14:31N 51°09' E 003°47'0 0.0
2016-May-26 13:31N 51°09' E 003°47'0 0.0
2016-May-26 12:31N 51°09' E 003°47'0 0.0
2016-May-26 11:31N 51°09' E 003°47'0 0.0
2016-May-26 10:31N 51°09' E 003°47'0 0.0
2016-May-26 09:25N 51°09' E 003°47'0 0.0
2016-May-26 08:28N 51°09' E 003°47'0 0.0
2016-May-26 07:28N 51°09' E 003°47'0 0.0
2016-May-26 06:31N 51°09' E 003°47'0 0.0
2016-May-26 05:28N 51°09' E 003°47'0 0.0
2016-May-26 04:28N 51°09' E 003°47'0 0.0
2016-May-26 03:28N 51°09' E 003°47'0 0.0
2016-May-26 02:31N 51°09' E 003°47'0 0.0
2016-May-26 01:31N 51°09' E 003°47'0 0.0
2016-May-26 00:28N 51°09' E 003°47'0 0.0
2016-May-25 23:31N 51°09' E 003°47'0 0.0
2016-May-25 22:30N 51°09' E 003°47'0 0.0
2016-May-25 21:28N 51°09' E 003°47'0 0.0
2016-May-25 20:31N 51°09' E 003°47'0 0.0
2016-May-25 19:28N 51°09' E 003°47'0 0.0
2016-May-25 18:28N 51°09' E 003°47'0 0.0
2016-May-25 17:31N 51°09' E 003°47'0 0.0
2016-May-25 16:28N 51°09' E 003°47'0 0.0
2016-May-25 15:25N 51°09' E 003°47'0 0.0
2016-May-25 14:28N 51°09' E 003°47'0 0.0
2016-May-25 13:28N 51°09' E 003°47'0 0.0
2016-May-25 12:29N 51°09' E 003°47'0 0.0
2016-May-25 11:31N 51°09' E 003°47'0 0.0
2016-May-25 10:28N 51°09' E 003°47'0 0.0
2016-May-25 09:31N 51°09' E 003°47'0 0.0
2016-May-25 08:28N 51°09' E 003°47'0 0.0
2016-May-25 07:28N 51°09' E 003°47'0 0.0
2016-May-25 06:31N 51°09' E 003°47'0 0.0
2016-May-25 05:31N 51°09' E 003°47'0 0.0
2016-May-25 04:19N 51°09' E 003°47'0 0.0
2016-May-25 03:31N 51°09' E 003°47'0 0.0
2016-May-25 02:28N 51°09' E 003°47'0 0.0
2016-May-25 01:28N 51°09' E 003°47'0 0.0
2016-May-25 00:28N 51°09' E 003°47'0 0.0
2016-May-24 23:28N 51°09' E 003°47'0 0.0
2016-May-24 22:28N 51°09' E 003°47'0 0.0
2016-May-24 21:28N 51°09' E 003°47'0 0.0
2016-May-24 20:28N 51°09' E 003°47'0 0.0
2016-May-24 19:31N 51°09' E 003°47'0 0.0
2016-May-24 18:25N 51°09' E 003°47'0 0.0
2016-May-24 17:28N 51°09' E 003°47'0 0.0
2016-May-24 16:31N 51°09' E 003°47'0 0.0
2016-May-24 15:28N 51°09' E 003°47'0 0.0
2016-May-24 14:31N 51°09' E 003°47'0 0.0
2016-May-24 13:33N 51°09' E 003°47'0 0.0
2016-May-24 12:31N 51°09' E 003°47'0 0.0
2016-May-24 11:31N 51°09' E 003°47'0 0.0
2016-May-24 10:28N 51°09' E 003°47'0 0.0
2016-May-24 09:31N 51°09' E 003°47'0 0.0
2016-May-24 08:22N 51°09' E 003°47'1 1.2
2016-May-24 07:34N 51°10' E 003°47'7 7.1
2016-May-24 06:33N 51°17' E 003°50'3 3.3
2016-May-24 05:33N 51°20' E 003°49'5 5.0
2016-May-24 04:33N 51°23' E 003°43'7 6.8
2016-May-24 03:34N 51°27' E 003°34'7 7.4
2016-May-24 02:33N 51°32' E 003°25'1010.1
2016-May-24 01:32N 51°41' E 003°17'8 0.3
2016-May-22 22:21N 51°48' E 003°22'0 0.0
2016-May-22 05:12N 51°48' E 003°22'18 0.6
2016-May-21 00:22N 52°06' E 003°22'17 5.9
2016-May-20 21:34N 52°18' E 003°04'113 4.5
2016-May-19 20:15N 54°01' E 004°21'6 8.5
2016-May-19 19:33N 54°03' E 004°31'6 4.8
2016-May-19 18:22N 53°59' E 004°38'117 7.6
2016-May-19 03:07N 52°10' E 003°30'710.0
2016-May-19 02:22N 52°06' E 003°40'7 8.4
2016-May-19 01:34N 52°04' E 003°51'8 7.9
2016-May-19 00:34N 51°60' E 004°02'9 8.8
2016-May-18 23:34N 51°55' E 004°14'4 0.6
2016-May-18 17:19N 51°53' E 004°18'  

Dump ship's entire track history